Time;durP1;ratioP1;P1;durP2;ratioP2;P2;SDS_P1;SDS_P2;PMS_P1;PMS_P2;Temp;Humidity;BMP_temperature;BMP_pressure;BME280_temperature;BME280_humidity;BME280_pressure;Samples;Min_cycle;Max_cycle;Signal;HPM_P1;HPM_P2
2022/11/28 00:01:05;;;;;;;6.20;3.80;;;7.10;99.90;;;;;;5092657;28;20181;-80
2022/11/28 00:03:31;;;;;;;4.83;3.23;;;7.10;99.90;;;;;;5092468;28;20182;-80
2022/11/28 00:06:01;;;;;;;5.50;3.47;;;7.10;99.90;;;;;;5093789;28;20292;-80
2022/11/28 00:08:26;;;;;;;7.13;3.67;;;7.10;99.90;;;;;;5095378;28;20641;-80
2022/11/28 00:10:52;;;;;;;4.60;3.70;;;7.10;99.90;;;;;;5096635;28;20190;-79
2022/11/28 00:13:17;;;;;;;10.37;3.73;;;7.10;99.90;;;;;;5097727;28;20178;-80
2022/11/28 00:15:43;;;;;;;7.03;4.03;;;7.10;99.90;;;;;;5097477;28;20174;-80
2022/11/28 00:18:09;;;;;;;6.17;4.00;;;7.10;99.90;;;;;;5097755;28;20516;-80
2022/11/28 00:20:34;;;;;;;5.70;3.57;;;7.10;99.90;;;;;;5099791;28;20198;-80
2022/11/28 00:23:00;;;;;;;5.33;3.67;;;7.10;99.90;;;;;;5106946;28;20173;-80
2022/11/28 00:25:26;;;;;;;5.97;3.80;;;7.10;99.90;;;;;;5107342;28;20232;-81
2022/11/28 00:27:51;;;;;;;7.00;3.63;;;7.10;99.90;;;;;;5100995;28;20170;-80
2022/11/28 00:30:17;;;;;;;5.20;3.40;;;7.10;99.90;;;;;;5099178;28;20197;-80
2022/11/28 00:32:42;;;;;;;5.07;3.60;;;7.10;99.90;;;;;;5098711;28;20175;-80
2022/11/28 00:35:08;;;;;;;5.10;3.37;;;7.10;99.90;;;;;;5100524;28;20679;-80
2022/11/28 00:37:33;;;;;;;7.83;3.80;;;7.20;99.90;;;;;;5098285;28;20181;-80
2022/11/28 00:39:59;;;;;;;5.80;3.67;;;7.10;99.90;;;;;;5099932;28;20204;-80
2022/11/28 00:42:24;;;;;;;7.90;3.97;;;7.10;99.90;;;;;;5100100;28;20185;-80
2022/11/28 00:44:50;;;;;;;8.30;3.97;;;7.20;99.90;;;;;;5098178;28;20182;-81
2022/11/28 00:47:15;;;;;;;6.77;3.60;;;7.20;99.90;;;;;;5099991;28;20206;-80
2022/11/28 00:49:41;;;;;;;4.77;3.47;;;7.20;99.90;;;;;;5099461;28;20744;-80
2022/11/28 00:52:07;;;;;;;4.97;3.70;;;7.10;99.90;;;;;;5098231;28;20196;-80
2022/11/28 00:54:33;;;;;;;6.63;4.30;;;7.10;99.90;;;;;;5099683;28;20194;-80
2022/11/28 00:56:58;;;;;;;7.07;4.27;;;7.10;99.90;;;;;;5099646;28;20662;-80
2022/11/28 00:59:24;;;;;;;5.13;4.10;;;7.10;99.90;;;;;;5097595;28;20694;-81
2022/11/28 01:01:50;;;;;;;6.97;4.20;;;7.10;99.90;;;;;;5099020;28;20213;-81
2022/11/28 01:04:16;;;;;;;6.43;3.80;;;7.10;99.90;;;;;;5098872;28;20188;-80
2022/11/28 01:06:47;;;;;;;5.33;3.77;;;7.10;99.90;;;;;;5097493;28;20795;-80
2022/11/28 01:09:17;;;;;;;6.50;3.60;;;7.10;99.90;;;;;;5097097;28;20671;-80
2022/11/28 01:11:43;;;;;;;7.20;3.67;;;7.20;99.90;;;;;;5097164;28;20240;-79
2022/11/28 01:14:10;;;;;;;5.63;3.70;;;7.20;99.90;;;;;;5098501;28;20643;-79
2022/11/28 01:16:36;;;;;;;7.17;3.70;;;7.10;99.90;;;;;;5096785;28;20178;-80
2022/11/28 01:19:02;;;;;;;9.47;4.33;;;7.10;99.90;;;;;;5097190;28;20198;-80
2022/11/28 01:21:27;;;;;;;8.30;3.70;;;7.10;99.90;;;;;;5098571;28;20253;-80
2022/11/28 01:23:53;;;;;;;4.37;3.40;;;7.20;99.90;;;;;;5097031;28;20174;-80
2022/11/28 01:26:25;;;;;;;4.67;3.50;;;7.10;99.90;;;;;;5097691;28;20198;-79
2022/11/28 01:28:52;;;;;;;6.30;3.93;;;7.20;99.90;;;;;;5097680;28;20162;-80
2022/11/28 01:31:24;;;;;;;6.37;4.10;;;7.20;99.90;;;;;;5098144;28;20171;-81
2022/11/28 01:33:50;;;;;;;6.70;3.57;;;7.20;99.90;;;;;;5096493;28;20166;-80
2022/11/28 01:36:17;;;;;;;4.30;3.40;;;7.20;99.90;;;;;;5098323;28;20175;-80
2022/11/28 01:38:43;;;;;;;4.93;3.70;;;7.20;99.90;;;;;;5096496;28;20189;-80
2022/11/28 01:41:10;;;;;;;7.63;4.03;;;7.20;99.90;;;;;;5096186;28;20277;-80
2022/11/28 01:43:36;;;;;;;4.10;3.57;;;7.20;99.90;;;;;;5097619;28;20201;-80
2022/11/28 01:46:03;;;;;;;3.70;3.30;;;7.20;99.90;;;;;;5095708;28;20217;-80
2022/11/28 01:48:36;;;;;;;6.20;3.80;;;7.20;99.90;;;;;;5096206;28;20177;-79
2022/11/28 01:51:06;;;;;;;6.10;4.07;;;7.20;99.90;;;;;;5095462;28;20269;-80
2022/11/28 01:53:36;;;;;;;5.10;4.00;;;7.20;99.90;;;;;;5097201;28;20181;-80
2022/11/28 01:56:07;;;;;;;6.10;4.00;;;7.20;99.90;;;;;;5097370;28;20342;-80
2022/11/28 01:58:35;;;;;;;5.60;4.00;;;7.20;99.90;;;;;;5096931;28;20175;-80
2022/11/28 02:01:01;;;;;;;7.13;3.90;;;7.20;99.90;;;;;;5096702;28;20195;-80
2022/11/28 02:03:38;;;;;;;5.10;4.03;;;7.20;99.90;;;;;;5094971;28;20220;-80
2022/11/28 02:06:03;;;;;;;7.23;4.00;;;7.20;99.90;;;;;;5095278;28;20194;-80
2022/11/28 02:08:33;;;;;;;5.37;3.87;;;7.20;99.90;;;;;;5096321;28;20181;-81
2022/11/28 02:11:13;;;;;;;5.50;3.83;;;7.20;99.90;;;;;;5095985;28;20576;-80
2022/11/28 02:14:24;;;;;;;5.73;3.83;;;7.20;99.90;;;;;;5096399;28;20154;-80
2022/11/28 02:17:20;;;;;;;5.03;3.80;;;7.20;99.90;;;;;;5096485;28;20171;-80
2022/11/28 02:20:00;;;;;;;5.07;3.63;;;7.20;99.90;;;;;;5094440;28;20197;-81
2022/11/28 02:22:59;;;;;;;5.20;3.77;;;7.20;99.90;;;;;;5094824;28;20213;-80
2022/11/28 02:25:52;;;;;;;5.93;3.70;;;7.20;99.90;;;;;;5096148;28;20186;-80
2022/11/28 02:28:39;;;;;;;7.17;4.67;;;7.20;99.90;;;;;;5095672;28;20242;-80
2022/11/28 02:31:23;;;;;;;7.67;4.10;;;7.20;99.90;;;;;;5094585;28;20170;-79
2022/11/28 02:33:54;;;;;;;6.33;4.50;;;7.20;99.90;;;;;;5094944;28;20174;-79
2022/11/28 02:36:43;;;;;;;5.30;3.90;;;7.30;99.90;;;;;;5095349;28;20162;-80
2022/11/28 02:39:21;;;;;;;7.07;4.03;;;7.20;99.90;;;;;;5094896;28;20202;-80
2022/11/28 02:41:56;;;;;;;5.10;4.10;;;7.30;99.90;;;;;;5095205;28;20170;-80
2022/11/28 02:44:34;;;;;;;7.50;3.83;;;7.20;99.90;;;;;;5093216;28;20669;-80
2022/11/28 02:47:09;;;;;;;9.17;4.53;;;7.20;99.90;;;;;;5093410;28;20296;-80
2022/11/28 02:49:48;;;;;;;5.63;4.23;;;7.20;99.90;;;;;;5093175;28;20189;-80
2022/11/28 02:52:19;;;;;;;6.90;4.30;;;7.20;99.90;;;;;;5094753;28;20166;-79
2022/11/28 02:54:46;;;;;;;6.13;4.57;;;7.20;99.90;;;;;;5100666;28;20165;-80
2022/11/28 02:57:11;;;;;;;5.27;3.63;;;7.20;99.90;;;;;;5101317;28;20236;-80
2022/11/28 02:59:37;;;;;;;6.77;4.00;;;7.20;99.90;;;;;;5103603;28;20194;-80
2022/11/28 03:02:08;;;;;;;4.23;3.67;;;7.20;99.90;;;;;;5100712;28;20170;-79
2022/11/28 03:04:43;;;;;;;6.30;4.40;;;7.20;99.90;;;;;;5094841;28;20188;-80
2022/11/28 03:07:23;;;;;;;6.97;4.20;;;7.20;99.90;;;;;;5094642;28;20234;-79
2022/11/28 03:10:17;;;;;;;7.30;4.63;;;7.10;99.90;;;;;;5094746;28;20560;-78
2022/11/28 03:12:42;;;;;;;6.87;4.77;;;7.10;99.90;;;;;;5094411;28;20502;-80
2022/11/28 03:15:11;;;;;;;6.03;4.30;;;7.10;99.90;;;;;;5093361;28;20180;-79
2022/11/28 03:17:47;;;;;;;4.67;3.67;;;7.10;99.90;;;;;;5094531;28;20245;-79
2022/11/28 03:20:23;;;;;;;7.50;4.73;;;7.10;99.90;;;;;;5094610;28;20243;-79
2022/11/28 03:23:13;;;;;;;6.90;4.40;;;7.10;99.90;;;;;;5094528;28;20170;-80
2022/11/28 03:25:41;;;;;;;7.00;4.73;;;7.10;99.90;;;;;;5092974;28;20198;-79
2022/11/28 03:28:30;;;;;;;6.23;4.63;;;7.10;99.90;;;;;;5093169;28;20166;-80
2022/11/28 03:31:07;;;;;;;6.83;4.60;;;7.10;99.90;;;;;;5092935;28;20194;-80
2022/11/28 03:33:37;;;;;;;6.57;4.37;;;7.10;99.90;;;;;;5092918;28;20166;-80
2022/11/28 03:36:15;;;;;;;6.70;4.20;;;7.10;99.90;;;;;;5094758;28;20227;-80
2022/11/28 03:38:44;;;;;;;9.07;4.90;;;7.10;99.90;;;;;;5094825;28;20162;-80
2022/11/28 03:41:17;;;;;;;5.60;4.33;;;7.00;99.90;;;;;;5094946;28;20261;-80
2022/11/28 03:43:51;;;;;;;7.80;4.70;;;7.10;99.90;;;;;;5094264;28;20231;-80
2022/11/28 03:46:21;;;;;;;4.97;4.33;;;7.00;99.90;;;;;;5094199;28;20206;-80
2022/11/28 03:48:51;;;;;;;6.43;4.57;;;7.00;99.90;;;;;;5092868;28;20163;-80
2022/11/28 03:51:28;;;;;;;8.97;4.87;;;7.00;99.90;;;;;;5094501;28;20170;-81
2022/11/28 03:54:11;;;;;;;7.50;4.90;;;7.00;99.90;;;;;;5094500;28;20533;-80
2022/11/28 03:57:01;;;;;;;6.10;4.70;;;7.00;99.90;;;;;;5093003;28;20197;-80
2022/11/28 03:59:39;;;;;;;6.57;4.27;;;7.00;99.90;;;;;;5094442;28;20548;-80
2022/11/28 04:02:16;;;;;;;6.50;4.40;;;7.00;99.90;;;;;;5093385;28;20612;-80
2022/11/28 04:04:54;;;;;;;9.40;5.07;;;7.00;99.90;;;;;;5093943;28;20212;-79
2022/11/28 04:07:45;;;;;;;7.37;5.17;;;7.00;99.90;;;;;;5092708;28;20208;-80
2022/11/28 04:10:14;;;;;;;7.80;5.03;;;7.00;99.90;;;;;;5092506;28;20230;-79
2022/11/28 04:12:51;;;;;;;6.07;4.43;;;7.00;99.90;;;;;;5093688;28;20261;-80
2022/11/28 04:15:27;;;;;;;8.03;5.03;;;7.00;99.90;;;;;;5093863;28;20158;-80
2022/11/28 04:18:02;;;;;;;7.40;4.50;;;7.00;99.90;;;;;;5093749;28;20158;-80
2022/11/28 04:20:37;;;;;;;5.63;4.63;;;7.00;99.90;;;;;;5092391;28;20672;-79
2022/11/28 04:23:10;;;;;;;7.03;5.23;;;6.90;99.90;;;;;;5092487;28;20162;-80
2022/11/28 04:25:41;;;;;;;6.97;5.10;;;7.00;99.90;;;;;;5092128;28;20202;-80
2022/11/28 04:28:17;;;;;;;8.53;5.27;;;7.00;99.90;;;;;;5092239;28;20165;-80
2022/11/28 04:30:45;;;;;;;7.00;5.00;;;7.00;99.90;;;;;;5092016;28;20640;-80
2022/11/28 04:33:14;;;;;;;7.60;5.20;;;7.00;99.90;;;;;;5092659;28;20626;-80
2022/11/28 04:35:45;;;;;;;5.47;4.43;;;7.00;99.90;;;;;;5092178;28;20660;-79
2022/11/28 04:38:11;;;;;;;10.17;4.80;;;6.90;99.90;;;;;;5093750;28;20165;-80
2022/11/28 04:41:03;;;;;;;7.57;5.00;;;6.90;99.90;;;;;;5091966;28;20198;-80
2022/11/28 04:43:56;;;;;;;7.20;4.40;;;6.90;99.90;;;;;;5093573;28;20163;-79
2022/11/28 04:46:25;;;;;;;7.33;5.03;;;6.90;99.90;;;;;;5091719;28;20206;-80
2022/11/28 04:48:51;;;;;;;7.60;5.10;;;6.90;99.90;;;;;;5092083;28;20176;-80
2022/11/28 04:51:20;;;;;;;7.70;5.60;;;6.90;99.90;;;;;;5091875;28;20177;-80
2022/11/28 04:53:55;;;;;;;6.93;5.00;;;6.90;99.90;;;;;;5093394;28;20167;-80
2022/11/28 04:56:30;;;;;;;6.80;4.90;;;6.90;99.90;;;;;;5095704;28;20565;-80
2022/11/28 04:58:56;;;;;;;7.43;5.13;;;6.90;99.90;;;;;;5095497;28;20169;-80
2022/11/28 05:01:28;;;;;;;8.77;5.20;;;6.90;99.90;;;;;;5096900;28;20177;-80
2022/11/28 05:03:54;;;;;;;7.93;4.87;;;6.90;99.90;;;;;;5096728;28;20197;-80
2022/11/28 05:06:28;;;;;;;8.17;4.97;;;6.90;99.90;;;;;;5095217;28;20245;-80
2022/11/28 05:08:54;;;;;;;8.27;5.43;;;6.90;99.90;;;;;;5096547;28;20235;-80
2022/11/28 05:11:20;;;;;;;7.03;5.03;;;6.80;99.90;;;;;;5095372;28;20185;-79
2022/11/28 05:13:46;;;;;;;7.93;5.50;;;6.80;99.90;;;;;;5095232;28;20181;-80
2022/11/28 05:16:13;;;;;;;6.87;5.13;;;6.80;99.90;;;;;;5096798;28;20301;-80
2022/11/28 05:18:39;;;;;;;7.87;5.40;;;6.80;99.90;;;;;;5096247;28;20182;-80
2022/11/28 05:21:07;;;;;;;6.33;4.63;;;6.90;99.90;;;;;;5096747;28;20201;-81
2022/11/28 05:23:41;;;;;;;6.77;5.40;;;6.80;99.90;;;;;;5095162;28;20184;-80
2022/11/28 05:26:13;;;;;;;8.87;5.17;;;6.80;99.90;;;;;;5096448;28;20212;-80
2022/11/28 05:28:41;;;;;;;8.50;5.53;;;6.80;99.90;;;;;;5094835;28;20173;-80
2022/11/28 05:31:07;;;;;;;8.03;5.80;;;6.80;99.90;;;;;;5096108;28;20644;-80
2022/11/28 05:33:33;;;;;;;9.80;5.87;;;6.80;99.90;;;;;;5096509;28;20270;-79
2022/11/28 05:36:07;;;;;;;8.33;5.63;;;6.80;99.90;;;;;;5095555;28;20201;-80
2022/11/28 05:38:34;;;;;;;8.87;5.43;;;6.80;99.90;;;;;;5094454;28;20268;-80
2022/11/28 05:41:01;;;;;;;12.37;6.00;;;6.80;99.90;;;;;;5094751;28;20205;-80
2022/11/28 05:43:27;;;;;;;8.60;5.63;;;6.80;99.90;;;;;;5096223;28;20659;-80
2022/11/28 05:45:54;;;;;;;8.80;6.20;;;6.80;99.90;;;;;;5094930;28;20207;-80
2022/11/28 05:48:20;;;;;;;8.67;5.53;;;6.80;99.90;;;;;;5095194;28;20512;-80
2022/11/28 05:50:46;;;;;;;9.97;5.60;;;6.80;99.90;;;;;;5096716;28;20596;-81
2022/11/28 05:53:12;;;;;;;8.13;5.73;;;6.80;99.90;;;;;;5094985;28;20255;-81
2022/11/28 05:55:39;;;;;;;8.93;5.50;;;6.80;99.90;;;;;;5095091;28;20205;-81
2022/11/28 05:58:05;;;;;;;7.60;5.10;;;6.80;99.90;;;;;;5096034;28;20524;-81
2022/11/28 06:00:30;;;;;;;7.00;4.97;;;6.70;99.90;;;;;;5095390;28;20221;-81
2022/11/28 06:02:57;;;;;;;10.43;5.40;;;6.80;99.90;;;;;;5096538;28;20178;-81
2022/11/28 06:05:23;;;;;;;9.77;6.03;;;6.80;99.90;;;;;;5096118;28;20232;-81
2022/11/28 06:07:48;;;;;;;8.77;5.80;;;6.80;99.90;;;;;;5096551;28;20177;-81
2022/11/28 06:10:14;;;;;;;8.63;6.17;;;6.80;99.90;;;;;;5095744;28;20281;-82
2022/11/28 06:12:40;;;;;;;9.27;5.13;;;6.70;99.90;;;;;;5096598;28;20241;-80
2022/11/28 06:15:06;;;;;;;9.30;6.07;;;6.80;99.90;;;;;;5095070;28;20269;-81
2022/11/28 06:17:31;;;;;;;7.83;5.60;;;6.70;99.90;;;;;;5094262;28;20185;-83
2022/11/28 06:19:57;;;;;;;9.23;6.37;;;6.80;99.90;;;;;;5094459;28;20567;-81
2022/11/28 06:22:22;;;;;;;13.80;6.93;;;6.70;99.90;;;;;;5094572;28;20184;-81
2022/11/28 06:24:48;;;;;;;7.37;5.63;;;6.70;99.90;;;;;;5096935;28;20213;-82
2022/11/28 06:27:14;;;;;;;7.10;5.80;;;6.70;99.90;;;;;;5096789;28;20679;-83
2022/11/28 06:29:39;;;;;;;8.93;5.77;;;6.70;99.90;;;;;;5096407;28;20201;-80
2022/11/28 06:32:05;;;;;;;9.30;6.13;;;6.70;99.90;;;;;;5094673;28;20185;-80
2022/11/28 06:34:31;;;;;;;7.43;6.03;;;6.70;99.90;;;;;;5095583;28;20184;-79
2022/11/28 06:36:56;;;;;;;7.07;5.40;;;6.70;99.90;;;;;;5096361;28;20203;-81
2022/11/28 06:39:22;;;;;;;9.03;5.93;;;6.70;99.90;;;;;;5095517;28;20208;-79
2022/11/28 06:41:48;;;;;;;8.67;5.53;;;6.60;99.90;;;;;;5095100;28;20195;-79
2022/11/28 06:44:14;;;;;;;9.37;6.00;;;6.60;99.90;;;;;;5096643;28;20261;-79
2022/11/28 06:46:41;;;;;;;9.47;6.43;;;6.70;99.90;;;;;;5095330;28;20625;-80
2022/11/28 06:49:06;;;;;;;7.67;5.70;;;6.70;99.90;;;;;;5095599;28;20190;-79
2022/11/28 06:51:32;;;;;;;8.37;5.40;;;6.70;99.90;;;;;;5095929;28;20203;-79
2022/11/28 06:53:57;;;;;;;7.27;5.83;;;6.70;99.90;;;;;;5095851;28;20165;-80
2022/11/28 06:56:23;;;;;;;9.27;5.83;;;6.70;99.90;;;;;;5095340;28;20644;-80
2022/11/28 06:58:58;;;;;;;8.57;5.87;;;6.70;99.90;;;;;;5094234;28;20595;-80
2022/11/28 07:01:27;;;;;;;11.27;6.40;;;6.70;99.90;;;;;;5094327;28;20174;-80
2022/11/28 07:03:53;;;;;;;10.13;6.10;;;6.70;99.90;;;;;;5094820;28;20181;-79
2022/11/28 07:06:20;;;;;;;10.10;6.53;;;6.70;99.90;;;;;;5096319;28;20194;-78
2022/11/28 07:08:46;;;;;;;8.83;6.00;;;6.70;99.90;;;;;;5095429;28;20663;-79
2022/11/28 07:11:15;;;;;;;9.57;6.00;;;6.70;99.90;;;;;;5095592;28;20173;-79
2022/11/28 07:13:42;;;;;;;8.00;5.63;;;6.80;99.90;;;;;;5094592;28;20274;-78
2022/11/28 07:16:14;;;;;;;8.53;5.73;;;6.70;99.90;;;;;;5095424;28;20197;-78
2022/11/28 07:18:39;;;;;;;8.33;5.47;;;6.70;99.90;;;;;;5094762;28;20170;-78
2022/11/28 07:21:05;;;;;;;9.00;6.47;;;6.80;99.90;;;;;;5095917;28;20174;-79
2022/11/28 07:23:31;;;;;;;10.00;6.70;;;6.80;99.90;;;;;;5095352;28;20170;-79
2022/11/28 07:25:58;;;;;;;9.07;6.10;;;6.80;99.90;;;;;;5093572;28;20198;-79
2022/11/28 07:28:24;;;;;;;7.97;6.10;;;6.80;99.90;;;;;;5095519;28;20654;-79
2022/11/28 07:31:01;;;;;;;10.47;5.57;;;6.70;99.90;;;;;;5094661;28;20194;-79
2022/11/28 07:33:27;;;;;;;7.93;5.90;;;6.80;99.90;;;;;;5093254;28;20704;-79
2022/11/28 07:35:52;;;;;;;9.80;6.30;;;6.70;99.90;;;;;;5094124;28;20174;-78
2022/11/28 07:38:18;;;;;;;8.57;5.80;;;6.80;99.90;;;;;;5093080;28;20174;-79
2022/11/28 07:40:43;;;;;;;10.10;5.77;;;6.80;99.90;;;;;;5094283;28;20240;-78
2022/11/28 07:43:09;;;;;;;13.43;6.23;;;6.80;99.90;;;;;;5093159;28;20182;-78
2022/11/28 07:45:38;;;;;;;7.63;6.07;;;6.80;99.90;;;;;;5092923;28;20185;-77
2022/11/28 07:48:04;;;;;;;8.83;6.60;;;6.80;99.90;;;;;;5094459;28;20179;-78
2022/11/28 07:50:29;;;;;;;10.10;6.83;;;6.80;99.90;;;;;;5094373;28;20221;-78
2022/11/28 07:52:55;;;;;;;8.10;5.40;;;6.80;99.90;;;;;;5093044;28;20215;-78
2022/11/28 07:55:21;;;;;;;8.27;5.77;;;6.80;99.90;;;;;;5094878;28;20190;-78
2022/11/28 07:57:46;;;;;;;12.00;6.03;;;6.80;99.90;;;;;;5092962;28;20208;-78
2022/11/28 08:00:13;;;;;;;11.47;5.63;;;6.80;99.90;;;;;;5092995;28;20289;-79
2022/11/28 08:02:38;;;;;;;12.20;7.40;;;6.80;99.90;;;;;;5094986;28;20173;-78
2022/11/28 08:05:04;;;;;;;10.03;6.13;;;6.80;99.90;;;;;;5095264;28;20165;-78
2022/11/28 08:07:30;;;;;;;9.17;6.57;;;6.80;99.90;;;;;;5094988;28;20190;-80
2022/11/28 08:09:56;;;;;;;9.33;6.33;;;6.80;99.90;;;;;;5095099;28;20239;-79
2022/11/28 08:12:21;;;;;;;8.80;6.37;;;6.80;99.90;;;;;;5095332;28;20166;-78
2022/11/28 08:14:47;;;;;;;7.73;5.90;;;6.80;99.90;;;;;;5095485;28;20643;-79
2022/11/28 08:17:12;;;;;;;8.77;6.57;;;6.90;99.90;;;;;;5095088;28;20181;-78
2022/11/28 08:19:38;;;;;;;9.53;5.93;;;6.90;99.90;;;;;;5093165;28;20205;-79
2022/11/28 08:22:03;;;;;;;10.60;5.70;;;6.90;99.90;;;;;;5094943;28;20171;-79
2022/11/28 08:24:29;;;;;;;9.83;6.60;;;6.90;99.90;;;;;;5093344;28;20171;-80
2022/11/28 08:26:54;;;;;;;8.87;5.33;;;6.90;99.90;;;;;;5094115;28;20197;-83
2022/11/28 08:29:20;;;;;;;8.33;5.83;;;6.90;99.90;;;;;;5097094;28;20189;-79
2022/11/28 08:31:45;;;;;;;8.77;5.57;;;6.90;99.90;;;;;;5098380;28;20170;-79
2022/11/28 08:34:11;;;;;;;7.97;5.97;;;6.90;99.90;;;;;;5096935;28;20175;-79
2022/11/28 08:36:37;;;;;;;7.13;5.70;;;6.90;99.90;;;;;;5098008;28;20178;-79
2022/11/28 08:39:04;;;;;;;7.77;5.97;;;6.90;99.90;;;;;;5096149;28;20285;-79
2022/11/28 08:41:29;;;;;;;8.33;6.23;;;6.90;99.90;;;;;;5097275;28;20170;-79
2022/11/28 08:43:55;;;;;;;9.90;6.50;;;6.90;99.90;;;;;;5096459;28;20188;-78
2022/11/28 08:46:21;;;;;;;9.00;6.13;;;6.90;99.90;;;;;;5095790;28;20210;-79
2022/11/28 08:48:48;;;;;;;10.23;6.30;;;6.90;99.90;;;;;;5097954;28;20178;-79
2022/11/28 08:51:16;;;;;;;8.70;6.40;;;7.00;99.90;;;;;;5096324;28;20175;-80
2022/11/28 08:53:43;;;;;;;8.40;6.27;;;7.00;99.90;;;;;;5096316;28;20178;-78
2022/11/28 08:56:09;;;;;;;8.47;5.83;;;7.00;99.90;;;;;;5096636;28;20174;-80
2022/11/28 08:58:36;;;;;;;15.60;6.93;;;7.00;99.90;;;;;;5096060;28;20177;-79
2022/11/28 09:01:02;;;;;;;6.80;5.63;;;7.00;99.90;;;;;;5098413;28;20676;-80
2022/11/28 09:03:27;;;;;;;7.67;5.97;;;7.00;99.90;;;;;;5096001;28;20177;-79
2022/11/28 09:05:58;;;;;;;12.63;6.37;;;7.00;99.90;;;;;;5096035;28;20198;-79
2022/11/28 09:08:23;;;;;;;9.80;7.37;;;7.00;99.90;;;;;;5095590;28;20163;-79
2022/11/28 09:10:49;;;;;;;10.17;6.67;;;7.00;99.90;;;;;;5097226;28;20198;-79
2022/11/28 09:13:15;;;;;;;12.23;7.47;;;7.00;99.90;;;;;;5096676;28;20177;-80
2022/11/28 09:15:42;;;;;;;11.03;7.87;;;7.00;99.90;;;;;;5097078;28;20167;-79
2022/11/28 09:18:08;;;;;;;9.40;7.47;;;7.00;99.90;;;;;;5095912;28;20181;-80
2022/11/28 09:20:34;;;;;;;10.83;7.50;;;7.00;99.90;;;;;;5095566;28;20198;-79
2022/11/28 09:23:00;;;;;;;11.30;8.30;;;7.10;99.90;;;;;;5097142;28;20585;-80
2022/11/28 09:25:25;;;;;;;10.63;8.07;;;7.10;99.90;;;;;;5096242;28;20189;-80
2022/11/28 09:27:51;;;;;;;10.17;8.40;;;7.10;99.90;;;;;;5096350;28;20644;-79
2022/11/28 09:30:17;;;;;;;13.50;9.80;;;7.10;99.90;;;;;;5096283;28;20186;-79
2022/11/28 09:32:46;;;;;;;11.57;9.17;;;7.10;99.90;;;;;;5096758;28;20264;-79
2022/11/28 09:35:11;;;;;;;13.73;9.57;;;7.10;99.90;;;;;;5095738;28;20206;-78
2022/11/28 09:37:37;;;;;;;11.17;9.03;;;7.10;99.90;;;;;;5096764;28;20166;-80
2022/11/28 09:40:03;;;;;;;14.50;10.20;;;7.10;99.90;;;;;;5097237;28;20201;-79
2022/11/28 09:42:37;;;;;;;14.83;10.07;;;7.10;99.90;;;;;;5096679;28;20174;-78
2022/11/28 09:45:09;;;;;;;14.63;10.43;;;7.10;99.90;;;;;;5094796;28;20281;-79
2022/11/28 09:47:36;;;;;;;11.77;9.00;;;7.10;99.90;;;;;;5096232;28;20266;-79
2022/11/28 09:50:19;;;;;;;14.13;10.13;;;7.20;99.90;;;;;;5094884;28;20234;-79
2022/11/28 09:53:02;;;;;;;13.97;9.97;;;7.10;99.90;;;;;;5096453;28;20155;-79
2022/11/28 09:55:39;;;;;;;13.17;9.43;;;7.20;99.90;;;;;;5097259;28;20212;-78
2022/11/28 09:58:15;;;;;;;12.67;9.20;;;7.20;99.90;;;;;;5096581;28;20176;-80
2022/11/28 10:00:50;;;;;;;12.80;8.77;;;7.20;99.90;;;;;;5094965;28;20197;-78
2022/11/28 10:03:16;;;;;;;14.53;8.90;;;7.20;99.90;;;;;;5094856;28;20192;-79
2022/11/28 10:05:50;;;;;;;15.13;8.77;;;7.20;99.90;;;;;;5096358;28;20202;-79
2022/11/28 10:08:58;;;;;;;11.67;8.53;;;7.20;99.90;;;;;;5094496;28;20223;-79
2022/11/28 10:11:51;;;;;;;10.77;8.37;;;7.20;99.90;;;;;;5068848;28;20186;-79
2022/11/28 10:14:50;;;;;;;10.93;7.67;;;7.30;99.90;;;;;;5094844;28;20247;-80
2022/11/28 10:17:29;;;;;;;10.17;7.17;;;7.30;99.90;;;;;;5094720;28;20205;-79
2022/11/28 10:20:02;;;;;;;10.50;6.90;;;7.30;99.90;;;;;;5094075;28;20237;-79
2022/11/28 10:22:59;;;;;;;10.10;7.40;;;7.30;99.90;;;;;;5094344;28;20674;-78
2022/11/28 10:25:39;;;;;;;9.70;6.73;;;7.30;99.90;;;;;;5095963;28;20245;-78
2022/11/28 10:28:10;;;;;;;9.60;6.93;;;7.40;99.90;;;;;;5094587;28;20188;-79
2022/11/28 10:30:40;;;;;;;11.53;7.67;;;7.30;99.90;;;;;;5095341;28;20201;-79
2022/11/28 10:33:15;;;;;;;13.03;7.40;;;7.40;99.90;;;;;;5095395;28;20170;-79
2022/11/28 10:35:53;;;;;;;11.07;7.83;;;7.40;99.90;;;;;;5095578;28;20166;-78
2022/11/28 10:38:24;;;;;;;9.93;7.37;;;7.40;99.90;;;;;;5094042;28;20171;-78
2022/11/28 10:41:02;;;;;;;13.87;7.33;;;7.40;99.90;;;;;;5095198;28;20189;-79
2022/11/28 10:43:42;;;;;;;13.53;7.50;;;7.50;99.90;;;;;;5093904;28;20209;-78
2022/11/28 10:46:42;;;;;;;11.50;7.43;;;7.50;99.90;;;;;;5096930;28;20206;-79
2022/11/28 10:49:25;;;;;;;11.10;7.47;;;7.50;99.90;;;;;;5095366;28;20194;-78
2022/11/28 10:52:15;;;;;;;13.27;7.90;;;7.60;99.90;;;;;;5093281;28;20196;-78
2022/11/28 10:54:53;;;;;;;12.50;7.20;;;7.60;99.90;;;;;;5095479;28;20616;-80
2022/11/28 10:57:44;;;;;;;12.43;7.43;;;7.60;99.90;;;;;;5093753;28;20198;-79
2022/11/28 11:00:11;;;;;;;10.13;7.40;;;7.60;99.90;;;;;;5093122;28;20198;-79
2022/11/28 11:02:50;;;;;;;11.13;6.90;;;7.60;99.90;;;;;;5093690;28;20182;-79
2022/11/28 11:05:18;;;;;;;11.27;7.83;;;7.60;99.90;;;;;;5093780;28;20535;-79
2022/11/28 11:07:57;;;;;;;9.70;6.93;;;7.70;99.90;;;;;;5094652;28;20220;-79
2022/11/28 11:10:35;;;;;;;11.90;6.90;;;7.70;99.90;;;;;;5093630;28;20579;-79
2022/11/28 11:13:13;;;;;;;11.60;7.20;;;7.70;99.90;;;;;;5094709;28;20158;-79
2022/11/28 11:15:39;;;;;;;12.27;7.13;;;7.70;99.90;;;;;;5094486;28;20150;-79
2022/11/28 11:18:19;;;;;;;9.87;6.97;;;7.60;99.90;;;;;;5094807;28;20602;-78
2022/11/28 11:20:45;;;;;;;8.87;6.27;;;7.70;99.90;;;;;;5093270;28;20664;-79
2022/11/28 11:23:17;;;;;;;13.10;7.33;;;7.70;99.90;;;;;;5093661;28;20178;-79
2022/11/28 11:26:01;;;;;;;10.50;7.30;;;7.70;99.90;;;;;;5093304;28;20181;-79
2022/11/28 11:28:31;;;;;;;11.43;6.77;;;7.70;99.90;;;;;;5093217;28;20173;-79
2022/11/28 11:31:00;;;;;;;8.87;6.77;;;7.70;99.90;;;;;;5094940;28;20648;-80
2022/11/28 11:33:32;;;;;;;8.10;6.43;;;7.70;99.90;;;;;;5093202;28;20261;-79
2022/11/28 11:35:58;;;;;;;8.73;6.37;;;7.70;99.90;;;;;;5093011;28;20177;-79
2022/11/28 11:38:33;;;;;;;10.87;6.73;;;7.70;99.90;;;;;;5094583;28;20200;-79
2022/11/28 11:41:19;;;;;;;8.70;6.60;;;7.70;99.90;;;;;;5092976;28;20201;-79
2022/11/28 11:43:45;;;;;;;10.37;7.40;;;7.80;99.90;;;;;;5093252;28;20178;-79
2022/11/28 11:46:15;;;;;;;8.10;7.03;;;7.70;99.90;;;;;;5093240;28;20205;-79
2022/11/28 11:48:49;;;;;;;12.17;7.63;;;7.70;99.90;;;;;;5094908;28;20163;-79
2022/11/28 11:51:28;;;;;;;14.03;7.73;;;7.70;99.90;;;;;;5094830;28;20180;-80
2022/11/28 11:54:05;;;;;;;10.97;6.77;;;7.80;99.90;;;;;;5094448;28;20256;-79
2022/11/28 11:56:38;;;;;;;11.70;6.80;;;7.80;99.90;;;;;;5095738;28;20173;-80
2022/11/28 11:59:18;;;;;;;10.97;6.97;;;7.80;99.90;;;;;;5096411;28;20667;-79
2022/11/28 12:01:47;;;;;;;8.90;6.97;;;7.80;99.90;;;;;;5096094;28;20611;-80
2022/11/28 12:04:22;;;;;;;8.70;6.60;;;7.80;99.90;;;;;;5097418;28;20182;-80
2022/11/28 12:06:51;;;;;;;10.77;6.33;;;7.80;99.90;;;;;;5098750;28;20193;-79
2022/11/28 12:09:32;;;;;;;12.00;7.40;;;7.80;99.90;;;;;;5097392;28;20201;-80
2022/11/28 12:12:20;;;;;;;10.83;7.70;;;7.80;99.90;;;;;;5098692;28;20162;-80
2022/11/28 12:14:47;;;;;;;9.53;7.17;;;7.80;99.90;;;;;;5098109;28;20260;-79
2022/11/28 12:17:25;;;;;;;12.93;8.50;;;7.80;99.90;;;;;;5098526;28;20179;-80
2022/11/28 12:20:20;;;;;;;11.70;7.57;;;7.80;99.90;;;;;;5098948;28;20193;-79
2022/11/28 12:22:58;;;;;;;8.67;6.87;;;7.80;99.90;;;;;;5097514;28;20182;-79
2022/11/28 12:25:46;;;;;;;13.93;7.13;;;7.80;99.90;;;;;;5098889;28;20194;-79
2022/11/28 12:28:41;;;;;;;10.87;7.17;;;7.70;99.90;;;;;;5098960;28;20166;-79
2022/11/28 12:31:21;;;;;;;9.77;7.70;;;7.80;99.90;;;;;;5096902;28;20746;-78
2022/11/28 12:34:15;;;;;;;13.30;7.80;;;7.70;99.90;;;;;;5098647;28;20153;-79
2022/11/28 12:37:07;;;;;;;9.30;7.20;;;7.70;99.90;;;;;;5077463;28;20187;-79
2022/11/28 12:39:52;;;;;;;10.77;7.70;;;7.70;99.90;;;;;;5102273;28;20194;-78
2022/11/28 12:42:32;;;;;;;12.23;7.03;;;7.70;99.90;;;;;;5099046;28;20158;-78
2022/11/28 12:45:20;;;;;;;10.73;7.47;;;7.70;99.90;;;;;;5098639;28;20237;-78
2022/11/28 12:48:23;;;;;;;12.70;8.07;;;7.70;99.90;;;;;;5098043;28;20298;-79
2022/11/28 12:50:57;;;;;;;10.07;7.20;;;7.70;99.90;;;;;;5099411;28;20196;-79
2022/11/28 12:53:58;;;;;;;10.53;7.70;;;7.70;99.90;;;;;;5099261;28;20154;-79
2022/11/28 12:56:47;;;;;;;9.77;7.00;;;7.80;99.90;;;;;;5099937;28;20526;-79
2022/11/28 12:59:28;;;;;;;10.40;7.40;;;7.80;99.90;;;;;;5096778;28;20190;-77
2022/11/28 13:01:59;;;;;;;10.27;7.60;;;7.80;99.90;;;;;;5097150;28;20620;-77
2022/11/28 13:04:42;;;;;;;9.90;7.50;;;7.80;99.90;;;;;;5097152;28;20251;-78
2022/11/28 13:07:47;;;;;;;9.70;6.90;;;7.80;99.90;;;;;;5095291;28;20564;-78
2022/11/28 13:10:25;;;;;;;10.40;7.27;;;7.80;99.90;;;;;;5051608;28;20205;-78
2022/11/28 13:12:59;;;;;;;10.47;7.53;;;7.80;99.90;;;;;;5096903;28;20154;-77
2022/11/28 13:16:06;;;;;;;8.03;6.53;;;7.80;99.90;;;;;;5095982;28;20165;-78
2022/11/28 13:18:38;;;;;;;12.60;7.27;;;7.90;99.90;;;;;;5097562;28;20178;-78